• Join FlightAware (Why Join?)
  • Login
  • US Flag 
11:58PM EST


 

Airport Tracker/Info


-or-


 

Live Flight TrackerFlight Track Log ✈ SWA1231 ✈ 12-Apr-2013 ✈ KAUS - KDAL

Flight Track Log - Related Links

Times and Time Zones

All times are in EDT time to prevent confusion due to time zone crossing. See the SWA1231 flight status page for this flight to view local times or setup timezone preferences in your user account.

Time Position Orientation Groundspeed Altitude Reporting Facility
EDT Latitude Longitude Course Direction KTS MPH feet Rate Location/Type
12:36PM 30.1528 -97.5289 46° Northeast 275 316 8,200  Level Houston Center
12:37PM 30.2225 -97.4758 33° Northeast 296 341 10,800 2,400 Climbing Houston Center
12:38PM 30.3128 -97.4319 23° Northeast 343 395 13,200 2,280 Climbing Houston Center
12:39PM 30.5868 -97.2632 41° Northeast  Level FlightAware Approximate
12:39PM 30.4006 -97.3639 34° Northeast 380 437 15,600  Level Houston Center
12:40PM 30.6473 -97.1860 41° Northeast  Level FlightAware Approximate
12:40PM 30.4811 -97.2778 43° Northeast 392 451 18,000  Level Houston Center
12:41PM 30.5667 -97.1889 42° Northeast 406 467 19,800 1,920 Climbing Houston Center
12:42PM 30.6722 -97.0778 42° Northeast 436 502 22,000 1,020 Climbing Houston Center
12:43PM 30.7653 -96.9794 42° Northeast 452 520 22,000  Level Houston Center
12:44PM 30.8608 -96.8772 43° Northeast 467 537 22,000  Level Houston Center
12:45PM 30.9558 -96.7769 42° Northeast 465 535 22,000  Level Houston Center
12:46PM 31.0506 -96.6742 43° Northeast 465 535 22,000  Level Houston Center
12:47PM 31.1611 -96.5594 42° Northeast 457 526 22,000  Level Houston Center
12:48PM 31.2544 -96.4572 43° Northeast 458 527 22,000  Level Houston Center
12:49PM 31.3475 -96.3583 42° Northeast 452 520 22,000  Level Houston Center
12:50PM 31.4361 -96.3103 25° Northeast 439 505 22,000  Level Fort Worth Center
12:51PM 31.5361 -96.2944 North 406 467 22,000  Level Fort Worth Center
12:52PM 31.6531 -96.2833 North 411 473 22,000 -180 Level Fort Worth Center
12:53PM 31.7636 -96.2869 358° North 404 465 21,700 -960 Descending Fort Worth Center
12:54PM 31.8661 -96.3003 354° North 377 434 20,100 -1,800 Descending Fort Worth Center
12:55PM 31.9642 -96.3139 353° North 357 411 18,100 -1,920 Descending Fort Worth Center
12:56PM 32.0606 -96.3250 354° North 348 400 16,300 -1,920 Descending Fort Worth Center
12:57PM 32.1503 -96.3361 354° North 335 386 14,300 -1,920 Descending Fort Worth Center
12:58PM 32.2486 -96.3472 355° North 330 380 12,500 -1,920 Descending Fort Worth Center
12:59PM 32.3383 -96.3586 354° North 320 368 10,500 -1,620 Descending Fort Worth Center
01:00PM 32.4178 -96.3700 353° North 305 351 9,300 -1,080 Descending Fort Worth Center
01:01PM 32.4933 -96.4061 338° Northwest 288 331 8,400 -1,020 Descending Fort Worth Center
01:02PM 32.5644 -96.4472 334° Northwest 283 326 7,300 -1,140 Descending Fort Worth Center
01:03PM 32.6317 -96.4883 333° Northwest 283 326 6,200 -1,020 Descending Fort Worth Center
01:04PM 32.6906 -96.5397 324° Northwest 272 313 5,300 -600 Descending Fort Worth Center
01:05PM 32.7389 -96.5958 316° Northwest 262 302 5,000 -180 Descending Fort Worth Center
01:06PM 32.7956 -96.6622 315° West 262 302 5,000  Level Fort Worth Center
01:06PM 32.8167 -96.6833 320° Northwest 264 304 5,000 -840 Level Dallas / Fort Worth TRACON
01:07PM 32.8667 -96.7500 312° West 254 292 3,900 -1,020 Descending Dallas / Fort Worth TRACON
01:08PM 32.9167 -96.7833 331° Northwest 242 278 3,100 -480 Descending Dallas / Fort Worth TRACON
01:09PM 32.9667 -96.8500 312° West 220 253 3,000 -420 Descending Dallas / Fort Worth TRACON
01:10PM 32.9333 -96.9000 232° Southwest 220 253 2,400 -720 Descending Dallas / Fort Worth TRACON
01:11PM 32.8833 -96.9000 180° South 173 199 1,700 -780 Descending Dallas / Fort Worth TRACON
01:13PM 32.8471 -96.8518 301° West  Level Estimated
01:20PM 32.8471 -96.8518 301° West  Level Estimated
01:21PM 32.8471 -96.8518 301° West  Level Estimated
01:22PM 32.8471 -96.8518 301° West  Level Estimated